Tiempo atmosférico en la estación meteorológica de Torrelavega, Sierrapando, Cantabria (100 m.)



Fecha
DESCASC
Temp. máxima en grados centígrados (hora)
DESCASC
Temp. mínima en grados centígrados (hora)
DESCASC
Temp. media en grados centígrados
DESCASC
Racha de viento máxima en m/sg (hora)
DESCASC
Velocidad máxima media en intervalos de 10 minutos(hora)
DESCASC
Precipitaciones diarias en mm
DESCASC
Precipitaciones de 00:00 a 06:00 en mm
DESCASC
Precipitaciones de 06:00 a 12:00 en mm
DESCASC
Precipitaciones de 12:00 a 18:00 en mm
DESCASC
Precipitaciones de 18:00 a 24:00 en mm
DESCASC
23-06-2019 23.5 (12:10) 16.8 (23:59) 20.1 9.17 (06:30) 5.83 (06:40) 0 0 0 0 0
22-06-2019 27.4 (17:00) 11.6 (06:00) 19.5 7.78 (17:40) 5.83 (05:40) 0 0 0 0 0
21-06-2019 19.3 (16:20) 13.6 (07:40) 16.4 8.33 (05:50) 5.83 (17:10) 5.6 4.8 0.8 0 0
20-06-2019 17.1 (18:20) 14.7 (00:00) 15.9 5 (20:40) 3.33 (17:00) 3.8 0.4 3.2 0 0.2
19-06-2019 21.7 (15:10) 13.1 (00:00) 17.4 -- (--) -- (--) -- -- 0 -- 0
18-06-2019 24.5 (12:20) 13.6 (00:00) 19.1 10.28 (14:20) 7.5 (14:20) 0 0 0 0 0
17-06-2019 20.2 (14:10) 13 (00:00) 16.6 6.67 (17:30) 4.72 (17:50) 0 0 0 0 0
16-06-2019 21.7 (14:00) 9.6 (00:00) 15.7 7.5 (14:20) 5.83 (14:20) 0 0 0 0 0
15-06-2019 20.1 (11:30) 11.8 (00:00) 16 8.06 (15:30) 5 (15:30) 0 0 0 0 0
14-06-2019 16.5 (19:30) 9.6 (00:00) 13.1 6.11 (12:50) 4.72 (15:20) 0 0 0 0 0
13-06-2019 17.2 (12:50) 10.1 (00:00) 13.7 8.06 (15:20) 5.83 (14:00) 0 0 0 0 0
12-06-2019 16.1 (16:40) 11.5 (00:00) 13.8 11.39 (12:20) 7.22 (13:00) 0 0 0 0 0
11-06-2019 16 (19:10) 9 (00:00) 12.5 14.72 (14:30) 10.56 (14:30) 25.6 8.2 15 1.8 0.6
10-06-2019 17.9 (15:20) 10 (00:00) 13.9 7.22 (15:30) 5 (16:10) 3 0.2 0 0 2.8
09-06-2019 14.6 (12:00) 11.8 (00:00) 13.2 6.67 (15:10) 4.72 (14:20) 3.2 0 0 3 0.2
08-06-2019 18.7 (14:10) 11.3 (00:00) 15 11.67 (15:40) 8.89 (15:30) 0 0 0 0 0
07-06-2019 17.8 (13:00) 11.9 (00:00) 14.8 18.61 (12:40) 11.94 (13:00) 0.8 0 0.2 0 0.6
06-06-2019 25.3 (19:40) 9.8 (00:00) 17.5 21.11 (21:40) 13.61 (21:40) 0.8 0 0 0 0.8
05-06-2019 17.6 (15:40) 11.5 (00:00) 14.6 15.56 (13:10) 10 (11:00) 4.2 4.2 0 0 0
04-06-2019 22.6 (13:40) 12.3 (00:00) 17.5 15.83 (14:40) 9.72 (14:40) 2.4 0 0 0 2.4
03-06-2019 -- (--) -- (--) -- -- (--) -- (--) -- 0 0 -- 0
02-06-2019 24.9 (11:50) 15.7 (00:00) 20.3 7.22 (14:10) 5 (16:20) 0 0 0 0 0
01-06-2019 28.2 (11:40) 16.3 (00:00) 22.3 6.67 (15:40) 5 (15:40) 0 0 0 0 0
31-05-2019 28.9 (15:20) 13.2 (00:00) 21 6.11 (14:50) 4.17 (03:30) 0 0 0 0 0
30-05-2019 26.1 (16:10) 11 (00:00) 18.6 7.22 (15:40) 5.83 (16:40) 0 0 0 0 0
29-05-2019 19.6 (15:10) 12.3 (00:00) 16 6.94 (17:10) 4.72 (17:10) 0 0 0 0 0
28-05-2019 16.7 (18:20) 11.7 (00:00) 14.2 13.33 (14:50) 9.17 (14:00) 0 0 0 0 0

Gráficas

Temp. máximas Temp. mínimas Temp. medias Precipitaciones Rachas de viento máximas Velocidades máximas media en intervalos de 10 minutos

Datos horarios

Fecha y hora oficial Temperatura (ºC) Velocidad del viento (km/h) Dirección del viento Racha (km/h) Dirección de racha Precipitación (mm) Presión (hPa) Tendencia (hPa) Humedad (%)
2019-06-26 23:00:00 18.9 9 Oeste 27 Oeste 0 -- -- 88
2019-06-26 22:00:00 19.1 16 Oeste 34 Oeste 0 -- -- 87
2019-06-26 21:00:00 19.7 13 Noroeste 29 Noroeste 0 -- -- 85
2019-06-26 20:00:00 20.6 15 Noroeste 27 Noroeste 0 -- -- 85
2019-06-26 19:00:00 21.1 16 Norte 27 Noroeste 0 -- -- 84
2019-06-26 18:00:00 21.5 20 Noroeste 29 Noroeste 0 -- -- 81
2019-06-26 17:00:00 23.7 15 Noroeste 22 Norte 0 -- -- 77
2019-06-26 16:00:00 25.2 13 Norte 21 Nordeste 0 -- -- 78
2019-06-26 15:00:00 25.2 12 Norte 19 Nordeste 0 -- -- 78
2019-06-26 14:00:00 25.9 12 Norte 19 Norte 0 -- -- 77
2019-06-26 13:00:00 27.3 12 Norte 17 Norte 0 -- -- 76
2019-06-26 12:00:00 26 8 Nordeste 12 Nordeste 0 -- -- 79
2019-06-26 11:00:00 24 8 Sudeste 12 Sudeste 0 -- -- 82
2019-06-26 10:00:00 21.5 9 Sudeste 14 Sudeste 0 -- -- 87
2019-06-26 09:00:00 19.5 10 Sudeste 15 Sudeste 0 -- -- 95
2019-06-26 08:00:00 17.8 7 Sudeste 18 Sudeste 0 -- -- 99
2019-06-26 07:00:00 16.7 6 Sudeste 17 Sudeste 0 -- -- 99
2019-06-26 06:00:00 16.9 6 Sudeste 9 Sudeste 0 -- -- 99
2019-06-26 05:00:00 17 4 Sudeste 13 Este 0.4 -- -- 99
2019-06-26 04:00:00 17.1 5 Sudoeste 12 Este 0.2 -- -- 98
2019-06-26 03:00:00 17.2 2 Este 8 Oeste 0 -- -- 98
2019-06-26 02:00:00 17.4 3 Noroeste 5 Noroeste 0 -- -- 98
2019-06-26 01:00:00 17.4 2 Sur 6 Nordeste 0 -- -- 98
2019-06-26 00:00:00 17.4 5 Este 9 Nordeste 0 -- -- 98
2019-06-25 23:00:00 17.4 8 Nordeste 10 Nordeste 0 -- -- 97
2019-06-25 22:00:00 17.7 6 Nordeste 10 Nordeste 0 -- -- 96
2019-06-25 21:00:00 18.4 6 Norte 9 Nordeste 0 -- -- 94
2019-06-25 20:00:00 19.1 3 Oeste 6 Oeste 0 -- -- 93
2019-06-25 19:00:00 18.9 2 Norte 10 Nordeste 0 -- -- 94
2019-06-25 18:00:00 18 6 Norte 17 Nordeste 0.2 -- -- 95
2019-06-25 17:00:00 18.4 12 Norte 18 Norte 0 -- -- 93
2019-06-25 16:00:00 18.5 9 Norte 14 Norte 0 -- -- 92
2019-06-25 15:00:00 18.8 10 Norte 15 Nordeste 0 -- -- 91
2019-06-25 14:00:00 18.7 10 Norte 15 Nordeste 0 -- -- 92
2019-06-25 13:00:00 19.2 9 Nordeste 18 Nordeste 0 -- -- 92
2019-06-25 12:00:00 19.8 12 Nordeste 18 Nordeste 0 -- -- 91
2019-06-25 11:00:00 18.6 7 Norte 12 Norte 0 -- -- 97
2019-06-25 10:00:00 17.7 6 Norte 10 Norte 0 -- -- 98
2019-06-25 09:00:00 17.1 5 Noroeste 12 Oeste 0.2 -- -- 98
2019-06-25 08:00:00 16.8 8 Oeste 14 Noroeste 0 -- -- 98
2019-06-25 07:00:00 16.5 5 Oeste 8 Oeste 0 -- -- 98
2019-06-25 06:00:00 16.5 4 Oeste 6 Oeste 0 -- -- 97
2019-06-25 05:00:00 16.6 5 Noroeste 8 Oeste 0 -- -- 97
2019-06-25 04:00:00 16.6 4 Sudoeste 6 Noroeste 0 -- -- 97
2019-06-25 03:00:00 16.6 2 Este 6 Oeste 0 -- -- 96
2019-06-25 02:00:00 16.6 5 Nordeste 12 Sudeste 0.4 -- -- 95
2019-06-25 01:00:00 17.3 6 Este 21 Sudeste 0 -- -- 93
2019-06-25 00:00:00 17.2 8 Sur 13 Sudeste 0 -- -- 94
2019-06-24 23:00:00 17.5 9 Sudeste 14 Sudeste 0 -- -- 92
2019-06-24 22:00:00 17.6 8 Sudeste 13 Sudeste 0 -- -- 90
2019-06-24 21:00:00 18.3 4 Oeste 11 Oeste 0 -- -- 85
2019-06-24 20:00:00 18.9 3 Sudoeste 19 Oeste 0 -- -- 84
2019-06-24 19:00:00 19.2 13 Oeste 24 Oeste 0 -- -- 83
2019-06-24 18:00:00 18.4 15 Oeste 23 Oeste 0 -- -- 88
2019-06-24 17:00:00 18.1 15 Noroeste 28 Oeste 0 -- -- 90
2019-06-24 16:00:00 18.5 17 Noroeste 27 Noroeste 0 -- -- 87
2019-06-24 15:00:00 18.6 11 Norte 18 Noroeste 0 -- -- 90
2019-06-24 14:00:00 19.1 8 Norte 14 Norte 0 -- -- 90
2019-06-24 13:00:00 18.2 2 Sur 8 Norte 0 -- -- 91
2019-06-24 12:00:00 17.5 4 Norte 9 Este 0 -- -- 96
2019-06-24 11:00:00 17 3 Nordeste 9 Oeste 0 -- -- 97
2019-06-24 10:00:00 16.5 7 Sudoeste 17 Noroeste 0 -- -- 97
2019-06-24 09:00:00 16.2 9 Oeste 13 Oeste 0 -- -- 97
2019-06-24 08:00:00 15.8 4 Norte 13 Este 0 -- -- 97
2019-06-24 07:00:00 15.8 8 Este 14 Sur 0 -- -- 96
2019-06-24 06:00:00 15.9 5 Sudeste 13 Sudeste 0 -- -- 96
2019-06-24 05:00:00 15.9 3 Norte 9 Nordeste 0 -- -- 96
2019-06-24 04:00:00 16.4 9 Sudeste 13 Sudeste 0 -- -- 95
2019-06-24 03:00:00 16.4 3 Sur 6 Noroeste 0 -- -- 94
2019-06-24 02:00:00 16.5 5 Noroeste 8 Noroeste 0 -- -- 93
2019-06-24 01:00:00 16.3 4 Oeste 9 Norte 0 -- -- 91
2019-06-24 00:00:00 16.8 7 Norte 10 Noroeste 0 -- -- 88
2019-06-23 23:00:00 17.3 8 Noroeste 20 Este 0 -- -- 85
2019-06-23 22:00:00 17.6 10 Este 18 Este 0 -- -- 84
2019-06-23 21:00:00 17.7 13 Este 18 Este 0 -- -- 84
2019-06-23 20:00:00 18.1 8 Nordeste 16 Nordeste 0 -- -- 81
2019-06-23 19:00:00 19 8 Nordeste 17 Nordeste 0 -- -- 79
2019-06-23 18:00:00 19.3 12 Nordeste 23 Nordeste 0 -- -- 76
2019-06-23 17:00:00 20.6 10 Nordeste 15 Este 0 -- -- 72
2019-06-23 16:00:00 21 7 Norte 18 Norte 0 -- -- 72
2019-06-23 15:00:00 22.4 12 Norte 19 Nordeste 0 -- -- 67
2019-06-23 14:00:00 22.8 12 Nordeste 24 Norte 0 -- -- 68
2019-06-23 13:00:00 23 16 Norte 23 Norte 0 -- -- 63
2019-06-23 12:00:00 22.8 5 Noroeste 12 Noroeste 0 -- -- 60
2019-06-23 11:00:00 20 3 Nordeste 9 Sudeste 0 -- -- 75
2019-06-23 10:00:00 19.7 6 Sudeste 14 Sudeste 0 -- -- 73
2019-06-23 09:00:00 19.4 5 Sur 13 Sudoeste 0 -- -- 72
2019-06-23 08:00:00 17.8 9 Sudoeste 23 Oeste 0 -- -- 78
2019-06-23 07:00:00 17.6 14 Oeste 33 Oeste 0 -- -- 80
2019-06-23 06:00:00 17.6 13 Oeste 27 Oeste 0 -- -- 85
2019-06-23 05:00:00 17.9 4 Sudoeste 6 Sudoeste 0 -- -- 87
2019-06-23 04:00:00 18.1 4 Noroeste 8 Sur 0 -- -- 86
2019-06-23 03:00:00 18.1 3 Nordeste 9 Oeste 0 -- -- 86
2019-06-23 02:00:00 19.1 3 Norte 12 Oeste 0 -- -- 83
2019-06-23 01:00:00 20.6 9 Sur 16 Sudeste 0 -- -- 77
2019-06-23 00:00:00 20.9 14 Sudeste 20 Sudeste 0 -- -- 76
2019-06-22 23:00:00 21.5 9 Sudeste 14 Sudeste 0 -- -- 71
2019-06-22 22:00:00 22 5 Sudeste 15 Este 0 -- -- 65
2019-06-22 21:00:00 23.4 9 Sudeste 13 Sudeste 0 -- -- 63
2019-06-22 20:00:00 24.9 8 Este 22 Este 0 -- -- 60
2019-06-22 19:00:00 26.6 16 Este 23 Este 0 -- -- 54
2019-06-22 18:00:00 27.1 15 Nordeste 28 Este 0 -- -- 55
2019-06-22 17:00:00 27.4 14 Nordeste 20 Nordeste 0 -- -- 58
2019-06-22 16:00:00 25.8 12 Nordeste 18 Nordeste 0 -- -- 65
2019-06-22 15:00:00 26.7 12 Nordeste 18 Nordeste 0 -- -- 62
2019-06-22 14:00:00 26.4 10 Nordeste 17 Este 0 -- -- 62
2019-06-22 13:00:00 25.7 9 Nordeste 15 Este 0 -- -- 60
2019-06-22 12:00:00 25.1 7 Sudeste 18 Sudeste 0 -- -- 60
2019-06-22 11:00:00 22.7 10 Sudeste 24 Sudeste 0 -- -- 63
2019-06-22 10:00:00 20.5 15 Sudeste 24 Sudeste 0 -- -- 63
2019-06-22 09:00:00 15.5 15 Sudeste 24 Sudeste 0 -- -- 81
2019-06-22 08:00:00 14.7 15 Sudeste 23 Sudeste 0 -- -- 85
2019-06-22 07:00:00 12.2 13 Sudeste 27 Sudeste -- -- -- 97
2019-06-22 06:00:00 11.6 20 Sudeste 27 Sudeste 0 -- -- 96
2019-06-22 05:00:00 12.2 14 Sudeste 24 Sudeste 0 -- -- 95
2019-06-22 04:00:00 12.5 17 Sudeste 23 Sudeste 0 -- -- 95
2019-06-22 03:00:00 12.7 15 Sudeste 22 Sudeste 0 -- -- 95
2019-06-22 02:00:00 13.2 7 Este 11 Este 0 -- -- 93
2019-06-22 01:00:00 13.8 8 Sudeste 15 Sudeste 0 -- -- 91
2019-06-22 00:00:00 14.5 10 Sudeste 15 Sudeste 0 -- -- 88
2019-06-21 23:00:00 15 10 Este 15 Este 0 -- -- 86
2019-06-21 22:00:00 15.5 7 Nordeste 16 Nordeste 0 -- -- 84
2019-06-21 21:00:00 16.3 16 Nordeste 24 Nordeste 0 -- -- 79
2019-06-21 20:00:00 17.5 17 Nordeste 27 Nordeste 0 -- -- 76
2019-06-21 19:00:00 18.2 19 Nordeste 28 Nordeste 0 -- -- 72
2019-06-21 18:00:00 18.8 17 Nordeste 28 Nordeste 0 -- -- 69
2019-06-21 17:00:00 18.7 21 Nordeste 30 Norte 0 -- -- 68
2019-06-21 16:00:00 18.6 18 Nordeste 27 Nordeste 0 -- -- 71
2019-06-21 15:00:00 18.2 16 Nordeste 22 Nordeste 0 -- -- 81
2019-06-21 14:00:00 17.3 5 Nordeste 10 Este 0 -- -- 82
2019-06-21 13:00:00 17.6 6 Este 10 Este 0 -- -- 79
2019-06-21 12:00:00 16.5 4 Sudeste 9 Sudeste 0 -- -- 86
2019-06-21 11:00:00 14.8 5 Sur 9 Sur 0 -- -- 94
2019-06-21 10:00:00 13.6 8 Nordeste 14 Norte 0.2 -- -- 98
2019-06-21 09:00:00 13.7 8 Norte 18 Nordeste 0.6 -- -- 97
2019-06-21 08:00:00 13.7 9 Nordeste 15 Nordeste 0 -- -- 96
2019-06-21 07:00:00 13.7 12 Nordeste 26 Nordeste 0 -- -- 96
2019-06-21 06:00:00 13.9 18 Nordeste 30 Nordeste 0 -- -- 98
2019-06-21 05:00:00 14.2 16 Nordeste 25 Nordeste 0 -- -- 98
2019-06-21 04:00:00 14.3 14 Nordeste 21 Nordeste 0.2 -- -- 98
2019-06-21 03:00:00 14.5 12 Nordeste 17 Nordeste 0.6 -- -- 98
2019-06-21 02:00:00 14.4 5 Este 8 Este 2 -- -- 98
2019-06-21 01:00:00 14.2 6 Este 17 Nordeste 2 -- -- 97
2019-06-21 00:00:00 14.8 10 Nordeste 15 Nordeste 0 -- -- 96
2019-06-20 23:00:00 15.4 12 Nordeste 16 Nordeste 0.2 -- -- 95
2019-06-20 22:00:00 15.6 8 Nordeste 14 Nordeste 0 -- -- 93
2019-06-20 21:00:00 15.9 12 Nordeste 18 Nordeste 0 -- -- 92
2019-06-20 20:00:00 16.2 5 Nordeste 17 Norte 0 -- -- 90
2019-06-20 19:00:00 16.8 12 Nordeste 18 Nordeste 0 -- -- 89
2019-06-20 18:00:00 17 10 Norte 15 Norte 0 -- -- 91
2019-06-20 17:00:00 16.8 12 Norte 18 Norte 0 -- -- 92
2019-06-20 16:00:00 16.3 3 Norte 9 Este 0 -- -- 95
2019-06-20 15:00:00 16.1 7 Este 10 Este 0 -- -- 96
2019-06-20 14:00:00 16.2 9 Este 13 Nordeste 0 -- -- 96
2019-06-20 13:00:00 16 11 Este 16 Este 0 -- -- 97
2019-06-20 12:00:00 15.6 9 Nordeste 15 Nordeste 0 -- -- 98
2019-06-20 11:00:00 15.4 5 Nordeste 8 Nordeste 0.2 -- -- 98
2019-06-20 10:00:00 14.9 4 Nordeste 9 Nordeste 0.8 -- -- 98
2019-06-20 09:00:00 14.8 4 Nordeste 8 Norte 1.2 -- -- 98
2019-06-20 08:00:00 14.8 3 Noroeste 9 Oeste 1 -- -- 98
2019-06-20 07:00:00 14.9 6 Oeste 9 Oeste 0 -- -- 97
2019-06-20 06:00:00 14.9 6 Oeste 11 Oeste 0.4 -- -- 97
2019-06-20 05:00:00 15.1 5 Oeste 10 Oeste 0 -- -- 96
2019-06-20 04:00:00 15.2 4 Oeste 13 Oeste 0 -- -- 95
2019-06-20 03:00:00 15.7 7 Oeste 14 Oeste 0 -- -- 92
2019-06-20 02:00:00 15.8 7 Oeste 12 Oeste 0 -- -- 92
2019-06-20 01:00:00 16 8 Oeste 13 Oeste 0 -- -- 91
2019-06-20 00:00:00 16 5 Oeste 10 Oeste 0 -- -- 90
2019-06-19 23:00:00 15.8 6 Noroeste 15 Noroeste 0 -- -- 91
2019-06-19 22:00:00 15.8 9 Noroeste 22 Noroeste 0 -- -- 90
2019-06-19 21:00:00 17.2 9 Noroeste 15 Noroeste 0 -- -- 82
2019-06-19 20:00:00 17.9 14 Noroeste 18 Noroeste 0 -- -- 79
2019-06-19 19:00:00 18.2 7 Noroeste 15 Nordeste 0 -- -- 83
2019-06-19 18:00:00 18.5 10 Nordeste 15 Norte 0 -- -- 81
2019-06-19 17:00:00 19.4 10 Nordeste 21 Nordeste 0 -- -- 75
2019-06-19 16:00:00 19.7 17 Nordeste 25 Nordeste 0 -- -- 73
2019-06-19 15:00:00 21.4 17 Norte -- -- -- -- -- 70
2019-06-19 14:00:00 21 10 Noroeste 18 Noroeste 0 -- -- 68
2019-06-19 13:00:00 21.2 10 Nordeste 16 Norte -- -- -- 75
2019-06-19 12:00:00 19.7 10 Nordeste 18 Norte 0 -- -- 80
2019-06-19 11:00:00 19.3 10 Noroeste 19 Noroeste 0 -- -- 79
2019-06-19 10:00:00 19.1 7 Norte 11 Norte 0 -- -- 79
2019-06-19 09:00:00 16.3 5 Oeste 13 Oeste 0 -- -- 82
2019-06-19 08:00:00 13.9 10 Sudoeste 13 Sudoeste 0 -- -- 91
2019-06-19 07:00:00 13.3 7 Oeste 13 Oeste 0 -- -- 92
2019-06-19 06:00:00 13.3 -- -- -- -- -- -- -- --
2019-06-19 05:00:00 14.1 3 Sudoeste 8 Sur 0 -- -- 92
2019-06-19 04:00:00 14.7 4 Sudoeste 9 Sudoeste 0 -- -- 92
2019-06-19 03:00:00 14.8 4 Sur 11 Sur 0 -- -- 92
2019-06-19 02:00:00 15.6 -- -- -- -- 0 -- -- --
2019-06-19 01:00:00 15.7 12 Sur 18 Sudeste 0 -- -- 93
2019-06-19 00:00:00 15.2 9 Sudeste 15 Sur 0 -- -- 95
2019-06-18 23:00:00 15.2 5 Este 12 Nordeste 0 -- -- 95
2019-06-18 22:00:00 15.5 11 Nordeste 20 Nordeste 0 -- -- 92
2019-06-18 21:00:00 19.3 5 Norte 10 Norte 0 -- -- 82
2019-06-18 20:00:00 19.4 4 Este 12 Nordeste 0 -- -- 83
2019-06-18 19:00:00 19.4 9 Norte 24 Norte 0 -- -- 79
2019-06-18 18:00:00 19 15 Norte 27 Norte 0 -- -- 83
2019-06-18 17:00:00 19.7 17 Norte 24 Noroeste 0 -- -- 80
2019-06-18 16:00:00 18.5 18 Noroeste 33 Noroeste 0 -- -- 83
2019-06-18 15:00:00 19.5 22 Noroeste 37 Noroeste 0 -- -- 80
2019-06-18 14:00:00 22.2 19 Norte 26 Norte 0 -- -- 77
2019-06-18 13:00:00 22.4 16 Nordeste 26 Norte 0 -- -- 75
2019-06-18 12:00:00 23.4 9 Norte 15 Norte 0 -- -- 76
2019-06-18 11:00:00 22 10 Nordeste 14 Norte 0 -- -- 79
2019-06-18 10:00:00 21 4 Este 9 Sudeste 0 -- -- 76
2019-06-18 09:00:00 18.5 5 Sudeste 10 Sur 0 -- -- 87
2019-06-18 08:00:00 15.5 3 Oeste 8 Sudoeste 0 -- -- 97
2019-06-18 07:00:00 13.9 4 Sudoeste 7 Sur 0 -- -- 98
2019-06-18 06:00:00 14 2 Sudeste 13 Sudeste 0 -- -- 98
2019-06-18 05:00:00 14 12 Sudeste 22 Sudeste 0 -- -- 97
2019-06-18 04:00:00 14.1 5 Sur 8 Sur 0 -- -- 95
2019-06-18 03:00:00 14.6 3 Oeste 8 Sudeste 0 -- -- 95
2019-06-18 02:00:00 14.8 5 Nordeste 15 Este 0 -- -- 94
2019-06-18 01:00:00 15.1 4 Noroeste 13 Noroeste 0 -- -- 94
2019-06-18 00:00:00 15.2 4 Norte 15 Oeste 0 -- -- 93
2019-06-17 23:00:00 15.6 4 Norte 14 Sudoeste 0 -- -- 91
2019-06-17 22:00:00 16 6 Oeste 21 Oeste 0 -- -- 89
2019-06-17 21:00:00 16 12 Oeste 23 Oeste 0 -- -- 89
2019-06-17 20:00:00 16.3 14 Noroeste 23 Noroeste 0 -- -- 88
2019-06-17 19:00:00 16.6 14 Noroeste 19 Noroeste 0 -- -- 87
2019-06-17 18:00:00 16.5 14 Noroeste 24 Noroeste 0 -- -- 86
2019-06-17 17:00:00 17.6 13 Noroeste 19 Noroeste 0 -- -- 82
2019-06-17 16:00:00 18 12 Norte 22 Nordeste 0 -- -- 83
2019-06-17 15:00:00 19.7 13 Norte 24 Norte 0 -- -- 78
2019-06-17 14:00:00 19.9 14 Nordeste 21 Norte 0 -- -- 78
2019-06-17 13:00:00 20 9 Nordeste 18 Nordeste 0 -- -- 77
2019-06-17 12:00:00 18 4 Nordeste 10 Nordeste 0 -- -- 84
2019-06-17 11:00:00 16.6 3 Norte 8 Nordeste 0 -- -- 90
2019-06-17 10:00:00 15.4 4 Nordeste 9 Noroeste 0 -- -- 94
2019-06-17 09:00:00 14.9 4 Este 8 Este 0 -- -- 95
2019-06-17 08:00:00 14.5 3 Sudoeste 7 Sudoeste 0 -- -- 96
2019-06-17 07:00:00 14.1 3 Oeste 5 Sudoeste -- -- -- 96
2019-06-17 06:00:00 13.9 4 Sudoeste 7 Sudoeste 0 -- -- 96
2019-06-17 05:00:00 13.3 7 Sudoeste 11 Oeste 0 -- -- 96
2019-06-17 04:00:00 13 6 Sudoeste 9 Sudoeste 0 -- -- 96
2019-06-17 03:00:00 13.4 8 Sudoeste 10 Sudoeste 0 -- -- 95
2019-06-17 02:00:00 13.9 6 Sudoeste 6 Oeste 0 -- -- 94
2019-06-17 01:00:00 14.4 3 Sudoeste 7 Sudoeste 0 -- -- 94
2019-06-17 00:00:00 14.6 3 Oeste 7 Norte 0 -- -- 94
2019-06-16 23:00:00 14.6 6 Norte 8 Nordeste 0 -- -- 92
2019-06-16 22:00:00 15.4 5 Norte 10 Norte 0 -- -- 88
2019-06-16 21:00:00 16.9 9 Norte 13 Norte 0 -- -- 84
2019-06-16 20:00:00 18.2 10 Norte 18 Norte 0 -- -- 79
2019-06-16 19:00:00 19.9 12 Norte 19 Norte 0 -- -- 71
2019-06-16 18:00:00 20.3 12 Norte 22 Norte 0 -- -- 70
2019-06-16 17:00:00 20.8 12 Norte 23 Norte 0 -- -- 70
2019-06-16 16:00:00 21.4 14 Norte 24 Norte 0 -- -- 68
2019-06-16 15:00:00 21.3 18 Norte 27 Noroeste 0 -- -- 70
2019-06-16 14:00:00 21.7 15 Norte 26 Nordeste 0 -- -- 69
2019-06-16 13:00:00 20.9 8 Norte 15 Noroeste 0 -- -- 61
2019-06-16 12:00:00 20.2 5 Sudoeste 12 Sudeste 0 -- -- 61
2019-06-16 11:00:00 18.8 5 Este 11 Nordeste 0 -- -- 66
2019-06-16 10:00:00 17 5 Nordeste 9 Este 0 -- -- 70
2019-06-16 09:00:00 14.6 4 Sur 9 Sur 0 -- -- 74
2019-06-16 08:00:00 11.8 9 Sur 17 Sur 0 -- -- 83
2019-06-16 07:00:00 9.8 12 Sur 19 Sudeste 0 -- -- 89
2019-06-16 06:00:00 10.4 13 Sudeste 20 Sudeste 0 -- -- 87
2019-06-16 05:00:00 10.8 8 Sur 14 Sudeste 0 -- -- 87
2019-06-16 04:00:00 11 8 Sur 13 Sudeste 0 -- -- 87
2019-06-16 03:00:00 11.5 9 Sur 12 Sur 0 -- -- 86
2019-06-16 02:00:00 12.7 6 Sur 10 Sudeste 0 -- -- 85
2019-06-16 01:00:00 13.5 8 Sudeste 10 Sudeste 0 -- -- 84
2019-06-16 00:00:00 14.4 6 Sudeste 9 Sudeste 0 -- -- 80
2019-06-15 23:00:00 14.9 2 Sudeste 5 Este 0 -- -- 77
2019-06-15 22:00:00 15.3 3 Este 5 Este 0 -- -- 77
2019-06-15 21:00:00 15.8 3 Nordeste 7 Norte 0 -- -- 74
2019-06-15 20:00:00 16.4 5 Noroeste 13 Norte 0 -- -- 72
2019-06-15 19:00:00 16.7 8 Noroeste 15 Norte 0 -- -- 70
2019-06-15 18:00:00 17.2 11 Norte 22 Norte 0 -- -- 65
2019-06-15 17:00:00 17.9 16 Norte 25 Norte 0 -- -- 65
2019-06-15 16:00:00 19.5 15 Norte 29 Norte 0 -- -- 63
2019-06-15 15:00:00 19.2 18 Nordeste 26 Nordeste 0 -- -- 63
2019-06-15 14:00:00 19.7 14 Norte 21 Nordeste 0 -- -- 61
2019-06-15 13:00:00 19.2 14 Norte 25 Nordeste 0 -- -- 59
2019-06-15 12:00:00 20 8 Noroeste 15 Noroeste 0 -- -- 55
2019-06-15 11:00:00 19.1 4 Oeste 8 Sur 0 -- -- 61
2019-06-15 10:00:00 16.4 3 Sudoeste 8 Sudeste 0 -- -- 80
2019-06-15 09:00:00 15 4 Sur 9 Sudoeste 0 -- -- 88
2019-06-15 08:00:00 12.7 6 Sur 13 Sudeste 0 -- -- 92
2019-06-15 07:00:00 12.2 9 Sur 14 Sudeste 0 -- -- 95
2019-06-15 06:00:00 12 6 Sur 10 Sudoeste 0 -- -- 94
2019-06-15 05:00:00 12.1 8 Sur 14 Sudoeste 0 -- -- 95
2019-06-15 04:00:00 12.1 7 Sudoeste 10 Sudoeste 0 -- -- 95
2019-06-15 03:00:00 12.3 7 Sur 10 Sur 0 -- -- 94
2019-06-15 02:00:00 12.2 5 Sur 9 Sur 0 -- -- 95
2019-06-15 01:00:00 12.2 9 Sur 12 Sudoeste 0 -- -- 95
2019-06-15 00:00:00 12.4 8 Sudoeste 10 Sudoeste 0 -- -- 93
2019-06-14 23:00:00 13.1 3 Sudoeste 5 Sudoeste 0 -- -- 90
2019-06-14 22:00:00 13.8 4 Norte 9 Noroeste 0 -- -- 85
2019-06-14 21:00:00 14.9 6 Oeste 9 Oeste 0 -- -- 85
2019-06-14 20:00:00 15.8 4 Oeste 7 Oeste 0 -- -- 78
2019-06-14 19:00:00 15.4 4 Nordeste 11 Nordeste 0 -- -- 83
2019-06-14 18:00:00 13.8 7 Norte 17 Norte 0 -- -- 92
2019-06-14 17:00:00 14.2 13 Nordeste 20 Nordeste 0 -- -- 87
2019-06-14 16:00:00 14.9 14 Nordeste 22 Nordeste 0 -- -- 86
2019-06-14 15:00:00 15.3 15 Nordeste 22 Nordeste 0 -- -- 83
2019-06-14 14:00:00 15.4 12 Nordeste 18 Norte 0 -- -- 83
2019-06-14 13:00:00 14.9 14 Nordeste 22 Nordeste 0 -- -- 85
2019-06-14 12:00:00 15.2 11 Norte 17 Nordeste 0 -- -- 85
2019-06-14 11:00:00 15.6 9 Nordeste 15 Nordeste 0 -- -- 79
2019-06-14 10:00:00 14.8 3 Sudoeste 12 Oeste -- -- -- 82
2019-06-14 09:00:00 12.7 6 Oeste 9 Oeste 0 -- -- 93
2019-06-14 08:00:00 11.7 3 Sudoeste 12 Sur 0 -- -- 96
2019-06-14 07:00:00 9.8 7 Sur 15 Sudeste 0 -- -- 97
2019-06-14 06:00:00 9.6 10 Sudeste 15 Sudeste 0 -- -- 97
2019-06-14 05:00:00 9.8 10 Sudeste 14 Sudeste 0 -- -- 97
2019-06-14 04:00:00 10.3 10 Sudeste 16 Sudeste 0 -- -- 96
2019-06-14 03:00:00 10.9 8 Sudeste 9 Sudeste 0 -- -- 95
2019-06-14 02:00:00 11.4 5 Sudoeste 8 Sudeste 0 -- -- 93
2019-06-14 01:00:00 12 8 Sudeste 10 Sudeste 0 -- -- 92
2019-06-14 00:00:00 13.2 4 Sudoeste 6 Sudoeste 0 -- -- 89
2019-06-13 23:00:00 13.4 2 Oeste 6 Norte 0 -- -- 86
2019-06-13 22:00:00 13.5 6 Norte 10 Norte 0 -- -- 86
2019-06-13 21:00:00 13.9 6 Nordeste 13 Nordeste 0 -- -- 86
2019-06-13 20:00:00 14 11 Nordeste 17 Nordeste 0 -- -- 83
2019-06-13 19:00:00 14.4 10 Norte 16 Nordeste 0 -- -- 79
2019-06-13 18:00:00 14.4 11 Norte 20 Norte 0 -- -- 80
2019-06-13 17:00:00 14.6 13 Norte 21 Nordeste 0 -- -- 82
2019-06-13 16:00:00 14.6 15 Norte 29 Nordeste 0 -- -- 82
2019-06-13 15:00:00 15.6 19 Nordeste 27 Nordeste 0 -- -- 80
2019-06-13 14:00:00 16.5 21 Nordeste 28 Nordeste 0 -- -- 74
2019-06-13 13:00:00 16.7 12 Este 20 Este 0 -- -- 69
2019-06-13 12:00:00 15.6 10 Nordeste 18 Nordeste 0 -- -- 75
2019-06-13 11:00:00 15.9 5 Nordeste 10 Nordeste 0 -- -- 75
2019-06-13 10:00:00 16.1 6 Este 10 Este 0 -- -- 76
2019-06-13 09:00:00 13 3 Sudoeste 5 Sudoeste 0 -- -- 86
2019-06-13 08:00:00 11.4 4 Sudoeste 9 Sudeste 0 -- -- 90
2019-06-13 07:00:00 10.6 6 Sur 12 Sudeste 0 -- -- 92
2019-06-13 06:00:00 10.5 10 Sudeste 13 Sudeste 0 -- -- 91
2019-06-13 05:00:00 10.1 8 Sur 13 Sudeste 0 -- -- 91
2019-06-13 04:00:00 10.1 10 Sudeste 13 Sudeste 0 -- -- 91
2019-06-13 03:00:00 10.7 9 Sudoeste 11 Sudoeste 0 -- -- 89
2019-06-13 02:00:00 11.6 5 Sudoeste 10 Sudoeste 0 -- -- 87
2019-06-13 01:00:00 12.4 6 Sudoeste 9 Sudoeste 0 -- -- 84
2019-06-13 00:00:00 13 6 Sudoeste 10 Sudoeste 0 -- -- 83
2019-06-12 23:00:00 13.2 6 Sudoeste 12 Noroeste 0 -- -- 83
2019-06-12 22:00:00 13.4 11 Noroeste 17 Noroeste 0 -- -- 81
2019-06-12 21:00:00 14 13 Noroeste 21 Noroeste 0 -- -- 78
2019-06-12 20:00:00 14.9 12 Noroeste 30 Oeste 0 -- -- 73
2019-06-12 19:00:00 15.5 22 Noroeste 31 Noroeste 0 -- -- 70
2019-06-12 18:00:00 15.7 17 Noroeste 34 Noroeste 0 -- -- 70
2019-06-12 17:00:00 15.6 24 Noroeste 35 Noroeste 0 -- -- 69
2019-06-12 16:00:00 15.2 22 Noroeste 36 Noroeste 0 -- -- 68
2019-06-12 15:00:00 15.5 22 Noroeste 35 Noroeste 0 -- -- 66
2019-06-12 14:00:00 16 18 Noroeste 33 Oeste 0 -- -- 63
2019-06-12 13:00:00 15.5 26 Noroeste 41 Oeste 0 -- -- 59
2019-06-12 12:00:00 14.8 18 Noroeste 35 Noroeste 0 -- -- 65
2019-06-12 11:00:00 14.7 16 Noroeste 32 Noroeste 0 -- -- 64
2019-06-12 10:00:00 13.2 8 Sudoeste 29 Oeste 0 -- -- 67
2019-06-12 09:00:00 13.2 16 Oeste 30 Oeste 0 -- -- 64
2019-06-12 08:00:00 12.2 9 Sudoeste 20 Oeste 0 -- -- 66
2019-06-12 07:00:00 11.7 11 Sudoeste 23 Sudoeste 0 -- -- 67
2019-06-12 06:00:00 11.8 13 Oeste 30 Oeste 0 -- -- 68
2019-06-12 05:00:00 11.8 14 Oeste 28 Oeste 0 -- -- 69
2019-06-12 04:00:00 12 15 Oeste 30 Oeste 0 -- -- 69
2019-06-12 03:00:00 11.8 15 Oeste 30 Oeste 0 -- -- 72
2019-06-12 02:00:00 11.5 12 Oeste 26 Oeste 0 -- -- 75
2019-06-12 01:00:00 12 17 Oeste 32 Oeste 0 -- -- 74
2019-06-12 00:00:00 12.3 17 Oeste 40 Oeste 0 -- -- 77
2019-06-11 23:00:00 12.5 22 Oeste 40 Oeste 0 -- -- 82
2019-06-11 22:00:00 12.7 18 Oeste 49 Oeste 0 -- -- 84
2019-06-11 21:00:00 13.1 22 Noroeste 45 Noroeste 0.6 -- -- 85
2019-06-11 20:00:00 14.2 30 Noroeste 49 Noroeste 0 -- -- 77
2019-06-11 19:00:00 15.5 26 Noroeste 49 Noroeste 0 -- -- 74
2019-06-11 18:00:00 15.1 34 Noroeste 51 Noroeste 0 -- -- 73
2019-06-11 17:00:00 15.1 35 Noroeste 52 Noroeste 0 -- -- 75
2019-06-11 16:00:00 15.1 31 Noroeste 53 Oeste 0 -- -- 74
2019-06-11 15:00:00 14.8 35 Noroeste 53 Noroeste 0.4 -- -- 76
2019-06-11 14:00:00 15.5 28 Noroeste 50 Noroeste 0.2 -- -- 76
2019-06-11 13:00:00 13 22 Oeste 43 Oeste 1.2 -- -- 88
2019-06-11 12:00:00 12.9 23 Oeste 40 Oeste 0 -- -- 82
2019-06-11 11:00:00 11.5 17 Oeste 37 Sudoeste 2 -- -- 92
2019-06-11 10:00:00 11.3 13 Sudoeste 28 Sudoeste 5.4 -- -- 92
2019-06-11 09:00:00 10.4 14 Oeste 30 Sudoeste 1 -- -- 93
2019-06-11 08:00:00 9.8 16 Oeste 27 Oeste 2.8 -- -- 96
2019-06-11 07:00:00 9 13 Oeste 42 Oeste 3.8 -- -- 94
2019-06-11 06:00:00 10.4 17 Oeste 26 Oeste 0 -- -- 96
2019-06-11 05:00:00 10.4 13 Oeste 27 Oeste 3.2 -- -- 96
2019-06-11 04:00:00 10.3 14 Sudoeste 22 Sudoeste 2 -- -- 96
2019-06-11 03:00:00 10.1 11 Sudoeste 16 Sudoeste 2 -- -- 95
2019-06-11 02:00:00 10.4 12 Sudoeste 24 Oeste 0.2 -- -- 94
2019-06-11 01:00:00 10.7 10 Oeste 18 Sudoeste 0.8 -- -- 93
2019-06-11 00:00:00 11.1 12 Oeste 25 Oeste 0.6 -- -- 93
2019-06-10 23:00:00 11.4 12 Sudoeste 17 Sudoeste 0.2 -- -- 93
2019-06-10 22:00:00 11.6 12 Sudoeste 23 Sudoeste 1.4 -- -- 90
2019-06-10 21:00:00 12.6 17 Sudoeste 23 Sudoeste 0.6 -- -- 85
2019-06-10 20:00:00 14 8 Oeste 18 Oeste 0 -- -- 75
2019-06-10 19:00:00 14.1 7 Oeste 15 Oeste 0 -- -- 75
2019-06-10 18:00:00 14.3 9 Noroeste 19 Noroeste 0 -- -- 75
2019-06-10 17:00:00 15.8 11 Norte 25 Nordeste 0 -- -- 70
2019-06-10 16:00:00 17 15 Nordeste 26 Noroeste 0 -- -- 68
2019-06-10 15:00:00 17.8 16 Norte 26 Noroeste 0 -- -- 66
2019-06-10 14:00:00 16.4 7 Norte 16 Este 0 -- -- 71
2019-06-10 13:00:00 16.9 3 Este 12 Sur 0 -- -- 69
2019-06-10 12:00:00 15.4 5 Sudoeste 9 Sudoeste 0 -- -- 79
2019-06-10 11:00:00 13.6 5 Oeste 8 Oeste 0 -- -- 90
2019-06-10 10:00:00 12.5 5 Sudoeste 10 Sudoeste 0 -- -- 96
2019-06-10 09:00:00 11.6 5 Sur 9 Sur 0 -- -- 97
2019-06-10 08:00:00 10.6 6 Sudoeste 8 Sudoeste 0 -- -- 97
2019-06-10 07:00:00 10.1 4 Oeste 8 Oeste 0 -- -- 97
2019-06-10 06:00:00 10.8 8 Sudoeste 10 Sudoeste 0 -- -- 97
2019-06-10 05:00:00 10.9 7 Sudoeste 9 Sudoeste 0.2 -- -- 97
2019-06-10 04:00:00 11.1 5 Sur 10 Sur 0 -- -- 96
2019-06-10 03:00:00 11 7 Sur 10 Sudoeste 0 -- -- 96
2019-06-10 02:00:00 11.3 6 Sudoeste 8 Oeste 0 -- -- 95
2019-06-10 01:00:00 11.8 5 Oeste 12 Sudoeste 0 -- -- 96
2019-06-10 00:00:00 11.8 9 Sudoeste 13 Sudoeste 0 -- -- 96
2019-06-09 23:00:00 11.9 6 Sudoeste 12 Oeste 0 -- -- 96
2019-06-09 22:00:00 12 4 Oeste 11 Sudoeste 0 -- -- 96
2019-06-09 21:00:00 12.2 6 Oeste 14 Noroeste 0 -- -- 95
2019-06-09 20:00:00 12.5 6 Oeste 12 Oeste 0 -- -- 96
2019-06-09 19:00:00 12.2 5 Norte 16 Nordeste 0.2 -- -- 97
2019-06-09 18:00:00 12.1 13 Nordeste 24 Nordeste 1.4 -- -- 97
2019-06-09 17:00:00 12.5 13 Norte 22 Norte 1.4 -- -- 96
2019-06-09 16:00:00 12.8 14 Norte 24 Noroeste 0.2 -- -- 94
2019-06-09 15:00:00 13.4 14 Noroeste 23 Noroeste 0 -- -- 92
2019-06-09 14:00:00 14.3 15 Noroeste 20 Noroeste 0 -- -- 89
2019-06-09 13:00:00 14.1 11 Norte 15 Norte 0 -- -- 89
2019-06-09 12:00:00 14.6 3 Noroeste 13 Sudoeste 0 -- -- 89
2019-06-09 11:00:00 13 6 Sudoeste 13 Noroeste 0 -- -- 95
2019-06-09 10:00:00 12.9 4 Norte 8 Nordeste 0 -- -- 95
2019-06-09 09:00:00 12.8 6 Nordeste 11 Nordeste 0 -- -- 93
2019-06-09 08:00:00 12.9 7 Nordeste 9 Nordeste 0 -- -- 90
2019-06-09 07:00:00 12.8 7 Nordeste 13 Este 0 -- -- 89
2019-06-09 06:00:00 13.1 12 Este 15 Este 0 -- -- 87
2019-06-09 05:00:00 13.3 6 Nordeste 14 Este 0 -- -- 86
2019-06-09 04:00:00 13.3 8 Este 16 Este 0 -- -- 86
2019-06-09 03:00:00 13.4 4 Este 9 Este 0 -- -- 85
2019-06-09 02:00:00 13.7 0 Calma 6 Este 0 -- -- 83
2019-06-09 01:00:00 13.8 6 Este 15 Este 0 -- -- 83
2019-06-09 00:00:00 13.7 11 Este 15 Este 0 -- -- 83
2019-06-08 23:00:00 13.8 9 Nordeste 14 Nordeste 0 -- -- 82
2019-06-08 22:00:00 14 10 Nordeste 21 Nordeste 0 -- -- 80
2019-06-08 21:00:00 14.4 13 Nordeste 24 Nordeste 0 -- -- 77
2019-06-08 20:00:00 15.1 15 Nordeste 26 Nordeste 0 -- -- 76
2019-06-08 19:00:00 15.6 17 Nordeste 32 Nordeste 0 -- -- 75
2019-06-08 18:00:00 15.6 24 Nordeste 38 Nordeste 0 -- -- 74
2019-06-08 17:00:00 16.8 28 Nordeste 40 Nordeste 0 -- -- 69
2019-06-08 16:00:00 17.7 27 Nordeste 42 Nordeste 0 -- -- 67
2019-06-08 15:00:00 18.5 26 Este 41 Este 0 -- -- 64
2019-06-08 14:00:00 18.3 22 Nordeste 35 Nordeste 0 -- -- 64
2019-06-08 13:00:00 18.2 19 Nordeste 30 Este 0 -- -- 66
2019-06-08 12:00:00 16.9 14 Este 23 Nordeste 0 -- -- 66
2019-06-08 11:00:00 15.5 15 Este 20 Este 0 -- -- 71
2019-06-08 10:00:00 15.5 5 Sudeste 10 Sudeste 0 -- -- 74
2019-06-08 09:00:00 13.2 5 Sur 10 Sur -- -- -- 82
2019-06-08 08:00:00 11.8 8 Sudeste 10 Sudeste 0 -- -- 87
2019-06-08 07:00:00 11.4 5 Sur 10 Sudeste 0 -- -- 88
2019-06-08 06:00:00 11.4 5 Sur 9 Sur 0 -- -- 87
2019-06-08 05:00:00 11.3 5 Sur 12 Sudeste 0 -- -- 87
2019-06-08 04:00:00 11.7 5 Sur 10 Sur 0 -- -- 85
2019-06-08 03:00:00 11.8 6 Sur 10 Sur 0 -- -- 85
2019-06-08 02:00:00 11.9 6 Sur 9 Sur 0 -- -- 86
2019-06-08 01:00:00 11.9 7 Sudoeste 12 Sudoeste 0 -- -- 87
2019-06-08 00:00:00 11.9 9 Sudoeste 14 Oeste 0 -- -- 86
2019-06-07 23:00:00 12.1 9 Sudoeste 14 Sudoeste 0 -- -- 85
2019-06-07 22:00:00 12.4 9 Oeste 23 Noroeste 0.4 -- -- 84
2019-06-07 21:00:00 13.8 13 Noroeste 26 Noroeste 0 -- -- 74
2019-06-07 20:00:00 14.6 13 Noroeste 31 Noroeste 0.2 -- -- 71
2019-06-07 19:00:00 15.1 20 Noroeste 39 Noroeste 0 -- -- 63
2019-06-07 18:00:00 16.2 26 Oeste 46 Oeste 0 -- -- 60
2019-06-07 17:00:00 17.3 30 Noroeste 53 Oeste 0 -- -- 53
2019-06-07 16:00:00 17.3 27 Noroeste 50 Noroeste 0 -- -- 58
2019-06-07 15:00:00 17.5 27 Noroeste 52 Oeste 0 -- -- 54
2019-06-07 14:00:00 17.1 34 Noroeste 60 Noroeste 0 -- -- 54
2019-06-07 13:00:00 17.8 43 Noroeste 67 Oeste 0 -- -- 50
2019-06-07 12:00:00 17.7 32 Noroeste 64 Noroeste 0 -- -- 45
2019-06-07 11:00:00 17.2 35 Oeste 57 Oeste 0.2 -- -- 43
2019-06-07 10:00:00 16.7 19 Oeste 36 Oeste 0 -- -- 51
2019-06-07 09:00:00 14.5 8 Sudoeste 15 Oeste 0 -- -- 61
2019-06-07 08:00:00 14.5 7 Sudoeste 10 Sudoeste 0 -- -- 55
2019-06-07 07:00:00 12.8 6 Oeste 11 Oeste 0 -- -- 58
2019-06-07 06:00:00 12.8 8 Oeste 18 Oeste 0 -- -- 57
2019-06-07 05:00:00 13.1 9 Sudoeste 25 Sur 0 -- -- 60
2019-06-07 04:00:00 14.3 19 Sur 29 Sur 0 -- -- 56
2019-06-07 03:00:00 13.6 11 Oeste 26 Sudoeste 0 -- -- 66
2019-06-07 02:00:00 14.3 15 Sur 24 Sur 0 -- -- 64
2019-06-07 01:00:00 14.2 5 Sudeste 28 Sudeste 0 -- -- 85
2019-06-07 00:00:00 14.6 15 Sudeste 46 Noroeste 0.8 -- -- 85
2019-06-06 23:00:00 17.9 29 Oeste 45 Noroeste 0 -- -- 63
2019-06-06 22:00:00 19.6 37 Sudoeste 76 Sudoeste 0 -- -- 52
2019-06-06 21:00:00 21.4 39 Sudoeste 74 Sudoeste 0 -- -- 43
2019-06-06 20:00:00 24.3 26 Sudoeste 67 Sudoeste 0 -- -- 31
2019-06-06 19:00:00 24.6 33 Sur 55 Sur 0 -- -- 28
2019-06-06 18:00:00 23.6 24 Sur 41 Sur 0 -- -- 32
2019-06-06 17:00:00 24.2 22 Sur 53 Sur 0 -- -- 31
2019-06-06 16:00:00 23.6 29 Sur 51 Sudoeste 0 -- -- 33
2019-06-06 15:00:00 23.4 29 Sur 61 Sur 0 -- -- 35
2019-06-06 14:00:00 21.5 34 Sur 58 Sur 0 -- -- 36
2019-06-06 13:00:00 19.9 29 Sur 50 Sur 0 -- -- 42
2019-06-06 12:00:00 19.4 30 Sur 42 Sur 0 -- -- 44
2019-06-06 11:00:00 18.8 7 Este 30 Sudeste 0 -- -- 56
2019-06-06 10:00:00 15.8 19 Sudeste 32 Sudeste 0 -- -- 62
2019-06-06 09:00:00 13.6 17 Sudeste 24 Sudeste 0 -- -- 70
2019-06-06 08:00:00 11.5 15 Sudeste 22 Sudeste 0 -- -- 82
2019-06-06 07:00:00 9.8 9 Sudeste 18 Sur 0 -- -- 91
2019-06-06 06:00:00 10.3 11 Sudeste 15 Sudeste 0 -- -- 91
2019-06-06 05:00:00 10.5 9 Sudeste 15 Sudeste 0 -- -- 92
2019-06-06 04:00:00 10.7 7 Sur 12 Sur 0 -- -- 91
2019-06-06 03:00:00 11.1 9 Sur 12 Sur 0 -- -- 89
2019-06-06 02:00:00 11.7 6 Sur 22 Noroeste 0 -- -- 86
2019-06-06 01:00:00 12.1 9 Oeste 17 Noroeste 0 -- -- 80
2019-06-06 00:00:00 12.2 8 Sudoeste 13 Sudoeste 0 -- -- 80
2019-06-05 23:00:00 12.6 8 Sudoeste 13 Sudoeste 0 -- -- 77
2019-06-05 22:00:00 13.3 0 Calma 7 Oeste 0 -- -- 76
2019-06-05 21:00:00 13.7 6 Oeste 18 Noroeste 0 -- -- 72
2019-06-05 20:00:00 13.9 12 Noroeste 22 Noroeste 0 -- -- 69
2019-06-05 19:00:00 14.1 16 Noroeste 26 Noroeste 0 -- -- 68
2019-06-05 18:00:00 14.8 15 Noroeste 31 Oeste 0 -- -- 64
2019-06-05 17:00:00 14.5 15 Noroeste 48 Noroeste 0 -- -- 76
2019-06-05 16:00:00 16.7 22 Noroeste 45 Noroeste 0 -- -- 60
2019-06-05 15:00:00 16.3 27 Noroeste 43 Noroeste 0 -- -- 66
2019-06-05 14:00:00 15.1 26 Noroeste 56 Noroeste 0 -- -- 70
2019-06-05 13:00:00 15.6 36 Noroeste 54 Noroeste 0 -- -- 69
2019-06-05 12:00:00 15.2 33 Noroeste 49 Noroeste 0 -- -- 71
2019-06-05 11:00:00 14 36 Noroeste 51 Noroeste 0 -- -- 77
2019-06-05 10:00:00 13.7 19 Noroeste 39 Noroeste 0 -- -- 82
2019-06-05 09:00:00 12.5 9 Oeste 24 Oeste 0 -- -- 90
2019-06-05 08:00:00 12 17 Oeste 32 Noroeste 0 -- -- 92
2019-06-05 07:00:00 11.6 7 Sudoeste 16 Oeste 0 -- -- 95
2019-06-05 06:00:00 11.6 11 Sudoeste 15 Sudoeste 0.8 -- -- 95
2019-06-05 05:00:00 11.6 8 Sudoeste 12 Sudoeste 0.8 -- -- 95
2019-06-05 04:00:00 11.8 5 Sur 14 Sudoeste 2.2 -- -- 94
2019-06-05 03:00:00 11.9 8 Sudoeste 16 Sudoeste 0.4 -- -- 92
2019-06-05 02:00:00 12.2 9 Sudoeste 19 Sudoeste 0 -- -- 92
2019-06-05 01:00:00 12.3 13 Sudoeste 23 Sudoeste 0 -- -- 91
2019-06-05 00:00:00 12.4 9 Sudoeste 13 Sudoeste 0.4 -- -- 92
2019-06-04 23:00:00 12.7 8 Sur 16 Sudoeste 2 -- -- 87
2019-06-04 22:00:00 13.9 8 Oeste 17 Oeste 0 -- -- 79
2019-06-04 21:00:00 14 9 Sudoeste 19 Sudoeste 0 -- -- 80
2019-06-04 20:00:00 14.1 8 Oeste 24 Oeste 0 -- -- 82
2019-06-04 19:00:00 14.4 13 Sudoeste 31 Noroeste 0 -- -- 84
2019-06-04 18:00:00 15.4 13 Noroeste 24 Noroeste 0 -- -- 79
2019-06-04 17:00:00 15.2 16 Noroeste 34 Oeste 0 -- -- 80
2019-06-04 16:00:00 15.6 13 Noroeste 41 Oeste 0 -- -- 77
2019-06-04 15:00:00 15.8 25 Noroeste 57 Noroeste 0 -- -- 82
2019-06-04 14:00:00 19.9 16 Norte 27 Norte 0 -- -- 76
2019-06-04 13:00:00 20.3 10 Norte 27 Norte 0 -- -- 78
2019-06-04 12:00:00 21.5 8 Norte 17 Noroeste 0 -- -- 70
2019-06-04 11:00:00 18.8 10 Oeste 23 Noroeste 0 -- -- 81
2019-06-04 10:00:00 19.7 13 Noroeste 21 Noroeste 0 -- -- 74
2019-06-04 09:00:00 18.9 5 Sudoeste 11 Sudoeste 0 -- -- 83
2019-06-04 08:00:00 16.8 6 Sudoeste 16 Noroeste 0 -- -- 96
2019-06-04 07:00:00 15.9 7 Oeste 10 Oeste 0 -- -- 97
2019-06-04 06:00:00 15.9 6 Sudoeste 17 Oeste 0 -- -- 98
2019-06-04 05:00:00 15.5 11 Oeste 19 Oeste 0 -- -- 97
2019-06-04 04:00:00 15 14 Oeste 19 Oeste 0 -- -- 97
2019-06-04 03:00:00 15.2 5 Sudeste 14 Este 0 -- -- 96
2019-06-04 02:00:00 15.3 7 Sudeste 11 Sudeste 0 -- -- 96
2019-06-04 01:00:00 15.6 4 Este 10 Este 0 -- -- 95
2019-06-04 00:00:00 16 4 Este 8 Sudeste 0 -- -- 96
2019-06-03 23:00:00 16.5 2 Sudeste 7 Sudeste 0 -- -- 95
2019-06-03 22:00:00 16.8 6 Norte 12 Noroeste 0 -- -- 93
2019-06-03 21:00:00 18 9 Norte 15 Norte 0 -- -- 88
2019-06-03 20:00:00 19.2 13 Norte 22 Norte 0 -- -- 83
2019-06-03 19:00:00 21.1 15 Nordeste 24 Nordeste 0 -- -- 76
2019-06-03 18:00:00 21.9 17 Nordeste 24 Nordeste 0 -- -- 75
2019-06-03 17:00:00 21.9 17 Nordeste 26 Nordeste 0 -- -- 73
2019-06-03 16:00:00 21.5 18 Norte 28 Nordeste 0 -- -- 77
2019-06-03 15:00:00 21.6 19 Norte -- -- -- -- -- 76
2019-06-03 14:00:00 -- -- -- -- -- -- -- -- --
2019-06-03 13:00:00 21 11 Nordeste 19 Nordeste 0 -- -- 75
2019-06-03 12:00:00 20.8 11 Norte 19 Nordeste 0 -- -- 76
2019-06-03 11:00:00 20 6 Nordeste 12 Sudeste 0 -- -- 73
2019-06-03 10:00:00 19.2 6 Este 13 Sudeste 0 -- -- 75
2019-06-03 09:00:00 17.6 9 Sudeste 13 Sudeste 0 -- -- 82
2019-06-03 08:00:00 15.5 4 Sur 8 Sur 0 -- -- 86
2019-06-03 07:00:00 14.6 7 Sudoeste 14 Oeste 0 -- -- 91
2019-06-03 06:00:00 14.3 7 Nordeste 26 Sudeste 0 -- -- 91
2019-06-03 05:00:00 14.5 11 Sur 17 Sudeste 0 -- -- 91
2019-06-03 04:00:00 15.1 6 Sur 10 Sudeste 0 -- -- 89
2019-06-03 03:00:00 15.6 7 Oeste 9 Oeste 0 -- -- 88
2019-06-03 02:00:00 16 2 Sur 8 Sur 0 -- -- 87
2019-06-03 01:00:00 16.1 7 Sur 15 Sudeste 0 -- -- 86
2019-06-03 00:00:00 16.5 5 Sudeste 12 Sudeste 0 -- -- 83
2019-06-02 23:00:00 17 5 Sudoeste 10 Sur 0 -- -- 82
2019-06-02 22:00:00 17.2 3 Sur 5 Oeste 0 -- -- 79
2019-06-02 21:00:00 17.7 4 Sudoeste 9 Noroeste 0 -- -- 77
2019-06-02 20:00:00 17.9 8 Nordeste 13 Nordeste 0 -- -- 80
2019-06-02 19:00:00 18.7 9 Nordeste 18 Norte 0 -- -- 79
2019-06-02 18:00:00 20.3 12 Nordeste 20 Nordeste 0 -- -- 67
2019-06-02 17:00:00 20.9 12 Noroeste 24 Norte 0 -- -- 64
2019-06-02 16:00:00 23.7 13 Nordeste 20 Nordeste 0 -- -- 46
2019-06-02 15:00:00 23.3 14 Nordeste 26 Nordeste 0 -- -- 55
2019-06-02 14:00:00 24 13 Nordeste 18 Nordeste 0 -- -- 54
2019-06-02 13:00:00 22.8 13 Norte 19 Norte 0 -- -- 54
2019-06-02 12:00:00 24.9 9 Norte 15 Norte 0 -- -- 56
2019-06-02 11:00:00 23.9 7 Nordeste 13 Nordeste 0 -- -- 62
2019-06-02 10:00:00 23.3 4 Nordeste 8 Sudeste 0 -- -- 61
2019-06-02 09:00:00 20.9 4 Sur 13 Sudeste 0 -- -- 65
2019-06-02 08:00:00 18.2 7 Sur 13 Sur 0 -- -- 73
2019-06-02 07:00:00 16.1 10 Sudoeste 12 Sudoeste 0 -- -- 80
2019-06-02 06:00:00 16.2 7 Sudoeste 14 Sudoeste 0 -- -- 79
2019-06-02 05:00:00 17.2 7 Sur 17 Sudeste 0 -- -- 78
2019-06-02 04:00:00 17.4 8 Sur 17 Sur 0 -- -- 76
2019-06-02 03:00:00 17.8 13 Sur 18 Sudeste 0 -- -- 72
2019-06-02 02:00:00 18.2 9 Sur 13 Sur 0 -- -- 67
2019-06-02 01:00:00 19.3 13 Sudoeste 17 Sudoeste 0 -- -- 57
2019-06-02 00:00:00 19.5 6 Sudoeste 9 Oeste 0 -- -- 54
2019-06-01 23:00:00 20.4 5 Noroeste 17 Noroeste 0 -- -- 50
2019-06-01 22:00:00 21.4 9 Noroeste 17 Oeste 0 -- -- 48
2019-06-01 21:00:00 23.9 8 Noroeste 14 Noroeste 0 -- -- 44
2019-06-01 20:00:00 24.6 9 Norte 21 Noroeste 0 -- -- 43
2019-06-01 19:00:00 26.2 14 Noroeste 23 Noroeste 0 -- -- 43
2019-06-01 18:00:00 26.5 13 Norte 19 Norte 0 -- -- 44
2019-06-01 17:00:00 26.3 13 Norte 20 Noroeste 0 -- -- 45
2019-06-01 16:00:00 26.2 16 Noroeste 24 Noroeste 0 -- -- 46
2019-06-01 15:00:00 26.5 13 Norte 21 Noroeste 0 -- -- 49
2019-06-01 14:00:00 27.4 14 Nordeste 22 Nordeste 0 -- -- 52
2019-06-01 13:00:00 27.2 13 Nordeste 17 Nordeste 0 -- -- 52
2019-06-01 12:00:00 28.2 9 Nordeste 12 Nordeste 0 -- -- 54
2019-06-01 11:00:00 27.2 5 Norte 9 Nordeste 0 -- -- 54
2019-06-01 10:00:00 25.6 0 Calma 5 Noroeste 0 -- -- 59
2019-06-01 09:00:00 22.1 4 Sur 10 Sudoeste 0 -- -- 60
2019-06-01 08:00:00 18.2 10 Oeste 17 Sudoeste 0 -- -- 68
2019-06-01 07:00:00 17 6 Sudoeste 12 Oeste 0 -- -- 70
2019-06-01 06:00:00 16.5 7 Sudoeste 11 Sudoeste 0 -- -- 74
2019-06-01 05:00:00 17 7 Sur 12 Sur 0 -- -- 77
2019-06-01 04:00:00 17.5 7 Sur 14 Sur 0 -- -- 75
2019-06-01 03:00:00 17.7 9 Sur 17 Sudeste 0 -- -- 75
2019-06-01 02:00:00 18.2 12 Sudeste 17 Sudeste 0 -- -- 74
2019-06-01 01:00:00 18.7 9 Sur 15 Sudeste 0 -- -- 76
2019-06-01 00:00:00 19.4 5 Sur 10 Sudeste 0 -- -- 76
2019-05-31 23:00:00 19.9 7 Sudeste 9 Sur 0 -- -- 72
2019-05-31 22:00:00 21.6 4 Sudeste 11 Sudeste 0 -- -- 68
2019-05-31 21:00:00 23.5 8 Norte 13 Nordeste 0 -- -- 63
2019-05-31 20:00:00 26.8 8 Este 12 Sudeste 0 -- -- 56
2019-05-31 19:00:00 28.3 6 Este 19 Este 0 -- -- 53
2019-05-31 18:00:00 28.6 13 Este 20 Nordeste 0 -- -- 49
2019-05-31 17:00:00 28.8 13 Nordeste 18 Nordeste 0 -- -- 52
2019-05-31 16:00:00 28.6 12 Nordeste 21 Nordeste 0 -- -- 53
2019-05-31 15:00:00 28.6 13 Nordeste 22 Nordeste 0 -- -- 49
2019-05-31 14:00:00 28 13 Nordeste 19 Nordeste 0 -- -- 52
2019-05-31 13:00:00 27.8 8 Este 22 Sudeste 0 -- -- 55
2019-05-31 12:00:00 26 8 Nordeste 13 Nordeste 0 -- -- 59
2019-05-31 11:00:00 24.2 6 Nordeste 11 Este 0 -- -- 64
2019-05-31 10:00:00 21.3 9 Sudeste 18 Sudeste 0 -- -- 64
2019-05-31 09:00:00 18.6 11 Sudeste 18 Sudeste 0 -- -- 69
2019-05-31 08:00:00 15.9 12 Sur 16 Sudeste 0 -- -- 79
2019-05-31 07:00:00 14 12 Sudeste 16 Sudeste 0 -- -- 91
2019-05-31 06:00:00 13.4 10 Sur 15 Sudeste 0 -- -- 93
2019-05-31 05:00:00 13.7 12 Sudeste 17 Sudeste 0 -- -- 91
2019-05-31 04:00:00 13.8 9 Sur 18 Sudeste 0 -- -- 91
2019-05-31 03:00:00 14.5 13 Sudeste 18 Sudeste 0 -- -- 88
2019-05-31 02:00:00 14.4 11 Sudeste 16 Sudeste 0 -- -- 87
2019-05-31 01:00:00 15.4 10 Sudeste 16 Sudeste 0 -- -- 82
2019-05-31 00:00:00 16.2 9 Sur 14 Sudeste 0 -- -- 77
2019-05-30 23:00:00 17.6 8 Este 13 Este 0 -- -- 70
2019-05-30 22:00:00 19.3 5 Sudeste 10 Sudeste 0 -- -- 61
2019-05-30 21:00:00 21.6 5 Este 17 Este 0 -- -- 55
2019-05-30 20:00:00 22.7 12 Nordeste 19 Este 0 -- -- 55
2019-05-30 19:00:00 24.3 12 Este 24 Este 0 -- -- 56
2019-05-30 18:00:00 24.5 13 Nordeste 24 Este 0 -- -- 58
2019-05-30 17:00:00 24.8 20 Este 26 Este 0 -- -- 57
2019-05-30 16:00:00 25.8 15 Nordeste 26 Nordeste 0 -- -- 57
2019-05-30 15:00:00 25.2 17 Nordeste 24 Nordeste 0 -- -- 58
2019-05-30 14:00:00 25.1 17 Nordeste 24 Nordeste 0 -- -- 58
2019-05-30 13:00:00 24.7 13 Este 20 Este 0 -- -- 59
2019-05-30 12:00:00 23.4 9 Este 16 Nordeste 0 -- -- 63
2019-05-30 11:00:00 21.9 8 Nordeste 15 Sudeste 0 -- -- 62
2019-05-30 10:00:00 19.2 8 Sudeste 18 Sudeste 0 -- -- 66
2019-05-30 09:00:00 16.3 12 Sudeste 24 Sudeste 0 -- -- 74
2019-05-30 08:00:00 13.8 14 Sudeste 23 Sudeste 0 -- -- 80
2019-05-30 07:00:00 11.7 14 Sudeste 23 Sudeste 0 -- -- 89
2019-05-30 06:00:00 11 13 Sudeste 22 Sudeste 0 -- -- 91
2019-05-30 05:00:00 11.3 15 Sudeste 23 Sudeste 0 -- -- 92
2019-05-30 04:00:00 11.3 10 Sur 17 Sur 0 -- -- 92
2019-05-30 03:00:00 11.9 12 Sudeste 18 Sudeste 0 -- -- 89
2019-05-30 02:00:00 12.6 13 Sudeste 19 Sudeste 0 -- -- 89
2019-05-30 01:00:00 12.6 15 Sudeste 19 Sudeste 0 -- -- 89
2019-05-30 00:00:00 13.3 9 Sur 14 Sudeste 0 -- -- 85
2019-05-29 23:00:00 14.4 6 Sudeste 9 Sudeste 0 -- -- 80
2019-05-29 22:00:00 15.2 6 Nordeste 13 Este 0 -- -- 75
2019-05-29 21:00:00 16.6 9 Nordeste 20 Este 0 -- -- 68
2019-05-29 20:00:00 18 12 Este 22 Nordeste 0 -- -- 67
2019-05-29 19:00:00 18.8 13 Nordeste 21 Nordeste 0 -- -- 64
2019-05-29 18:00:00 19 13 Norte 25 Nordeste 0 -- -- 63
2019-05-29 17:00:00 19.5 13 Norte 21 Nordeste 0 -- -- 65
2019-05-29 16:00:00 19.3 11 Nordeste 22 Nordeste 0 -- -- 64
2019-05-29 15:00:00 19.5 10 Nordeste 23 Nordeste 0 -- -- 67
2019-05-29 14:00:00 18.6 9 Norte 19 Norte 0 -- -- 68
2019-05-29 13:00:00 17.3 11 Nordeste 19 Nordeste 0 -- -- 77
2019-05-29 12:00:00 17.1 5 Norte 10 Noroeste 0 -- -- 76
2019-05-29 11:00:00 15.3 6 Noroeste 10 Noroeste 0 -- -- 82
2019-05-29 10:00:00 14.5 5 Oeste 10 Oeste 0 -- -- 80
2019-05-29 09:00:00 13.3 6 Oeste 15 Oeste 0 -- -- 83
2019-05-29 08:00:00 12.9 9 Sudoeste 13 Sudoeste 0 -- -- 80
2019-05-29 07:00:00 12.5 6 Oeste 10 Sudoeste 0 -- -- 82
2019-05-29 06:00:00 12.5 9 Sudoeste 15 Sudoeste 0 -- -- 81
2019-05-29 05:00:00 12.5 8 Sudoeste 13 Sudoeste 0 -- -- 81
2019-05-29 04:00:00 12.4 5 Oeste 17 Sudoeste 0 -- -- 83
2019-05-29 03:00:00 12.3 10 Sudoeste 13 Oeste 0 -- -- 88
2019-05-29 02:00:00 12.3 10 Sudoeste 14 Sudoeste 0 -- -- 89
2019-05-29 01:00:00 12.6 8 Sudoeste 21 Oeste 0 -- -- 87
2019-05-29 00:00:00 12.9 12 Oeste 21 Noroeste 0 -- -- 86
2019-05-28 23:00:00 13.1 12 Noroeste 23 Noroeste 0 -- -- 85
2019-05-28 22:00:00 13.3 15 Noroeste 25 Noroeste 0 -- -- 83
2019-05-28 21:00:00 14 16 Noroeste 31 Noroeste 0 -- -- 81
2019-05-28 20:00:00 15 22 Noroeste 34 Norte 0 -- -- 77
2019-05-28 19:00:00 15.3 21 Noroeste 34 Noroeste 0 -- -- 75
2019-05-28 18:00:00 15.6 22 Noroeste 33 Noroeste 0 -- -- 75
2019-05-28 17:00:00 15.6 24 Noroeste 41 Noroeste 0 -- -- 75
2019-05-28 16:00:00 16.6 24 Noroeste 41 Noroeste 0 -- -- 72
2019-05-28 15:00:00 16.3 28 Noroeste 48 Noroeste 0 -- -- 73
2019-05-28 14:00:00 15.9 33 Noroeste 46 Noroeste 0 -- -- 77
2019-05-28 13:00:00 16 23 Noroeste 44 Noroeste 0 -- -- 80
2019-05-28 12:00:00 14.7 29 Noroeste 43 Noroeste 0 -- -- 75
2019-05-28 11:00:00 16.2 25 Noroeste 43 Noroeste 0 -- -- 70
2019-05-28 10:00:00 15.4 18 Noroeste 29 Noroeste 0 -- -- 78
2019-05-28 09:00:00 12.5 13 Oeste 26 Oeste 0 -- -- 87
2019-05-28 08:00:00 12.1 7 Oeste 17 Oeste 0 -- -- 88
2019-05-28 07:00:00 11.8 8 Sudoeste 16 Oeste 0 -- -- 90
2019-05-28 06:00:00 12.2 11 Oeste 24 Oeste 0 -- -- 89
2019-05-28 05:00:00 12.6 13 Oeste 22 Noroeste 0 -- -- 88
2019-05-28 04:00:00 12.6 11 Noroeste 18 Noroeste 0 -- -- 89
2019-05-28 03:00:00 12.6 10 Noroeste 18 Noroeste 0 -- -- 89
2019-05-28 02:00:00 12.9 12 Noroeste 18 Noroeste 0 -- -- 88
2019-05-28 01:00:00 13 10 Noroeste 17 Noroeste 0 -- -- 88
2019-05-28 00:00:00 13.1 8 Noroeste 16 Oeste 0 -- -- 90